Mississippi Voyager — WDD7294 — position and weather

sailwx.info

Track history (hours):
 
Tides and Currents Weather Stations Pressure Air Temp Water Temp Dewpoint Dewpoint Depression Visibility Wind Speed Wind Dir Waves Ship Positions

Mississippi Voyager

Owner: Chevron USA Inc., Washington, DC. More information available from US FCC via Universal Licensing System and Coast Guard Vessel Documentation Center.

Last reported at 2017-Nov-24 15:31 UTC. Time now 2017-Nov-24 18:22 UTC.
Position N 33°46' W 118°16'.

Length 183 m; draft 9.6 m.

Type: Tanker. MMSI: 366962000.

Date/timePositionNaut miles runAvg speedWind from/ knotsBaromVisibWave heightAir tempDewpointWater temp
2017-Nov-24 15:31N 33°46' W 118°16'0 0.0
2017-Nov-24 15:25N 33°46' W 118°16'0 0.0
2017-Nov-24 14:55N 33°46' W 118°16'0 0.0
2017-Nov-24 14:25N 33°46' W 118°16'0 0.0
2017-Nov-24 13:55N 33°46' W 118°16'0 0.0
2017-Nov-24 13:28N 33°46' W 118°16'0 0.0
2017-Nov-24 12:58N 33°46' W 118°16'0 0.0
2017-Nov-24 12:28N 33°46' W 118°16'0 0.0
2017-Nov-24 11:58N 33°46' W 118°16'0 0.0
2017-Nov-24 11:28N 33°46' W 118°16'0 0.0
2017-Nov-24 10:55N 33°46' W 118°16'0 0.0
2017-Nov-24 10:28N 33°46' W 118°16'0 0.0
2017-Nov-24 09:55N 33°46' W 118°16'0 0.0
2017-Nov-24 09:25N 33°46' W 118°16'0 0.0
2017-Nov-24 08:55N 33°46' W 118°16'0 0.0
2017-Nov-24 08:25N 33°46' W 118°16'  
2017-Nov-19 16:18N 33°55' W 118°27'1 3.0
2017-Nov-19 15:56N 33°54' W 118°28'2 4.7
2017-Nov-19 15:29N 33°52' W 118°30'1 1.5
2017-Nov-19 14:59N 33°52' W 118°31'2 3.4
2017-Nov-19 14:30N 33°52' W 118°33'611.1
2017-Nov-19 13:59N 33°50' W 118°39'612.0
2017-Nov-19 13:29N 33°45' W 118°43'5 9.4
2017-Nov-19 13:00N 33°44' W 118°48'3 6.7
2017-Nov-19 12:30N 33°44' W 118°52'4 7.2
2017-Nov-19 12:00N 33°44' W 118°57'610.9
2017-Nov-19 11:29N 33°44' W 119°04'611.4
2017-Nov-19 10:59N 33°43' W 119°10'611.7
2017-Nov-19 10:30N 33°42' W 119°17'510.5
2017-Nov-19 10:00N 33°42' W 119°23'510.3
2017-Nov-19 09:30N 33°41' W 119°30'511.2
2017-Nov-19 09:01N 33°41' W 119°36'611.5
2017-Nov-19 08:30N 33°40' W 119°43'611.8
2017-Nov-19 07:59N 33°39' W 119°50'612.0
2017-Nov-19 07:31N 33°39' W 119°57'612.1
2017-Nov-19 06:59N 33°38' W 120°05'612.1
2017-Nov-19 06:30N 33°37' W 120°12'611.9
2017-Nov-19 06:00N 33°39' W 120°19'4 7.4
2017-Nov-19 05:31N 33°40' W 120°23'4 8.3
2017-Nov-19 05:01N 33°42' W 120°27'714.0
2017-Nov-19 04:30N 33°45' W 120°35'713.6
2017-Nov-19 03:57N 33°48' W 120°43'613.7
2017-Nov-19 03:30N 33°50' W 120°50'713.5
2017-Nov-19 03:00N 33°53' W 120°57'713.8
2017-Nov-19 02:30N 33°56' W 121°05'714.3
2017-Nov-19 02:00N 33°59' W 121°13'714.2
2017-Nov-19 01:30N 34°02' W 121°21'713.9
2017-Nov-19 01:00N 34°05' W 121°28'714.0
2017-Nov-19 00:30N 34°10' W 121°34'714.0
2017-Nov-19 00:00N 34°15' W 121°39'714.4
2017-Nov-18 23:31N 34°20' W 121°45'714.8
2017-Nov-18 23:00N 34°26' W 121°51'714.7
2017-Nov-18 22:30N 34°31' W 121°57'714.2
2017-Nov-18 22:00N 34°36' W 122°03'714.2
2017-Nov-18 21:30N 34°42' W 122°09'714.1
2017-Nov-18 21:00N 34°47' W 122°15'1015.0
2017-Nov-18 20:21N 34°56' W 122°11'513.4
2017-Nov-18 20:00N 35°01' W 122°10'714.6
2017-Nov-18 19:30N 35°07' W 122°15'814.3
2017-Nov-18 18:55N 35°14' W 122°20'614.5
2017-Nov-18 18:30N 35°19' W 122°24'714.4
2017-Nov-18 18:00N 35°26' W 122°29'714.2
2017-Nov-18 17:30N 35°32' W 122°33'813.9
2017-Nov-18 16:57N 35°38' W 122°38'614.2
2017-Nov-18 16:30N 35°44' W 122°42'714.1
2017-Nov-18 16:00N 35°50' W 122°47'6013.3
2017-Nov-18 11:28N 36°47' W 123°09'614.0
2017-Nov-18 11:00N 36°54' W 123°09'714.2
2017-Nov-18 10:30N 37°01' W 123°08'714.6
2017-Nov-18 10:00N 37°08' W 123°07'714.6
2017-Nov-18 09:30N 37°15' W 123°06'714.1
2017-Nov-18 09:00N 37°22' W 123°05'714.0
2017-Nov-18 08:30N 37°29' W 123°05'612.9
2017-Nov-18 08:00N 37°35' W 123°02'714.2
2017-Nov-18 07:30N 37°39' W 122°54'714.2
2017-Nov-18 07:01N 37°43' W 122°47'612.7
2017-Nov-18 06:30N 37°46' W 122°39'611.3
2017-Nov-18 06:00N 37°48' W 122°33'4 9.0
2017-Nov-18 05:30N 37°50' W 122°28'3 6.2
2017-Nov-18 05:00N 37°52' W 122°25'3 6.4
2017-Nov-18 04:30N 37°55' W 122°25'0 0.4
2017-Nov-18 03:58N 37°55' W 122°25'0 0.0
2017-Nov-18 03:28N 37°55' W 122°25'0 0.0
2017-Nov-18 02:58N 37°55' W 122°25'0 0.0
2017-Nov-18 02:25N 37°55' W 122°25'0 0.0
2017-Nov-18 01:58N 37°55' W 122°25'0 0.0
2017-Nov-18 01:28N 37°55' W 122°25'0 0.0
2017-Nov-18 00:58N 37°55' W 122°25'0 0.0
2017-Nov-18 00:28N 37°55' W 122°25'0 0.0
2017-Nov-17 23:58N 37°55' W 122°25'0 0.0
2017-Nov-17 23:28N 37°55' W 122°25'0 0.0
2017-Nov-17 22:58N 37°55' W 122°25'0 0.0
2017-Nov-17 22:25N 37°55' W 122°25'0 0.0
2017-Nov-17 21:58N 37°55' W 122°25'0 0.0
2017-Nov-17 21:28N 37°55' W 122°25'0 0.0
2017-Nov-17 20:58N 37°55' W 122°25'0 0.0
2017-Nov-17 20:25N 37°55' W 122°25'0 0.0
2017-Nov-17 19:58N 37°55' W 122°25'0 0.0
2017-Nov-17 19:19N 37°55' W 122°25'0 0.0
2017-Nov-17 18:58N 37°55' W 122°25'0 0.0
2017-Nov-17 18:22N 37°55' W 122°25'0 0.0
2017-Nov-17 17:58N 37°55' W 122°25'0 0.0
2017-Nov-17 17:28N 37°55' W 122°25'0 0.0
2017-Nov-17 16:58N 37°55' W 122°25'0 0.0
2017-Nov-17 16:28N 37°55' W 122°25'0 0.0
2017-Nov-17 15:58N 37°55' W 122°25'0 0.0
2017-Nov-17 15:19N 37°55' W 122°25'0 0.0
2017-Nov-17 14:58N 37°55' W 122°25'0 0.0
2017-Nov-17 14:28N 37°55' W 122°25'0 0.0
2017-Nov-17 13:58N 37°55' W 122°25'0 0.0
2017-Nov-17 13:28N 37°55' W 122°25'0 0.0
2017-Nov-17 12:58N 37°55' W 122°25'0 0.0
2017-Nov-17 12:22N 37°55' W 122°25'0 0.0
2017-Nov-17 11:58N 37°55' W 122°25'0 0.0
2017-Nov-17 11:28N 37°55' W 122°25'0 0.0
2017-Nov-17 10:58N 37°55' W 122°25'0 0.0
2017-Nov-17 10:28N 37°55' W 122°25'0 0.0
2017-Nov-17 09:58N 37°55' W 122°25'0 0.0
2017-Nov-17 09:28N 37°55' W 122°25'0 0.0
2017-Nov-17 08:58N 37°55' W 122°25'0 0.0
2017-Nov-17 08:28N 37°55' W 122°25'0 0.0
2017-Nov-17 07:58N 37°55' W 122°25'0 0.0
2017-Nov-17 07:28N 37°55' W 122°25'0 0.0
2017-Nov-17 06:58N 37°55' W 122°25'0 0.0
2017-Nov-17 06:28N 37°55' W 122°25'0 0.0
2017-Nov-17 05:58N 37°55' W 122°25'0 0.0
2017-Nov-17 05:28N 37°55' W 122°25'0 0.0
2017-Nov-17 04:43N 37°55' W 122°25'0 0.0
2017-Nov-17 04:28N 37°55' W 122°25'0 0.0
2017-Nov-17 03:55N 37°55' W 122°25'0 0.0
2017-Nov-17 03:25N 37°55' W 122°25'0 0.0
2017-Nov-17 03:01N 37°55' W 122°25'2 3.6
2017-Nov-17 02:30N 37°54' W 122°25'4 9.0
2017-Nov-17 02:00N 37°49' W 122°24'5 9.6
2017-Nov-17 01:30N 37°45' W 122°21'0 0.5
2017-Nov-17 01:00N 37°45' W 122°21'0 0.1
2017-Nov-17 00:29N 37°45' W 122°21'0 0.0
2017-Nov-16 23:59N 37°45' W 122°21'0 0.0
2017-Nov-16 23:29N 37°45' W 122°21'0 0.0
2017-Nov-16 22:59N 37°45' W 122°21'0 0.0
2017-Nov-16 22:29N 37°45' W 122°21'0 0.0
2017-Nov-16 21:59N 37°45' W 122°21'0 0.0
2017-Nov-16 21:29N 37°45' W 122°21'0 0.0
2017-Nov-16 20:59N 37°45' W 122°21'0 0.0
2017-Nov-16 20:29N 37°45' W 122°21'0 0.0
2017-Nov-16 19:59N 37°45' W 122°21'0 0.1
2017-Nov-16 19:29N 37°45' W 122°21'0 0.2
2017-Nov-16 18:59N 37°45' W 122°21'0 0.1
2017-Nov-16 18:29N 37°45' W 122°21'0 0.1
2017-Nov-16 17:59N 37°45' W 122°21'0 0.0
2017-Nov-16 17:29N 37°45' W 122°21'0 0.0
2017-Nov-16 16:59N 37°45' W 122°21'0 0.0
2017-Nov-16 16:29N 37°45' W 122°21'0 0.0
2017-Nov-16 15:59N 37°45' W 122°21'0 0.0
2017-Nov-16 15:29N 37°45' W 122°21'0 0.1
2017-Nov-16 14:59N 37°45' W 122°21'0 0.1
2017-Nov-16 14:29N 37°45' W 122°21'0 0.0
2017-Nov-16 13:59N 37°45' W 122°21'0 0.0
2017-Nov-16 13:30N 37°45' W 122°21'0 0.1
2017-Nov-16 13:00N 37°45' W 122°21'0 0.2
2017-Nov-16 12:30N 37°45' W 122°21'0 0.0
2017-Nov-16 12:00N 37°45' W 122°21'0 0.1
2017-Nov-16 11:30N 37°45' W 122°21'0 0.0
2017-Nov-16 11:00N 37°45' W 122°21'0 0.0
2017-Nov-16 10:30N 37°45' W 122°21'0 0.1
2017-Nov-16 10:00N 37°45' W 122°21'0 0.1
2017-Nov-16 09:30N 37°45' W 122°21'0 0.0
2017-Nov-16 09:00N 37°45' W 122°21'0 0.0
2017-Nov-16 08:30N 37°45' W 122°21'0 0.0
2017-Nov-16 08:00N 37°45' W 122°21'0 0.0
2017-Nov-16 07:30N 37°45' W 122°21'0 0.1
2017-Nov-16 07:00N 37°45' W 122°21'0 0.3
2017-Nov-16 06:30N 37°45' W 122°21'0 0.1
2017-Nov-16 06:00N 37°45' W 122°21'0 0.1
2017-Nov-16 05:30N 37°45' W 122°21'0 0.1
2017-Nov-16 05:00N 37°45' W 122°21'0 0.0
2017-Nov-16 04:30N 37°45' W 122°21'0 0.0
2017-Nov-16 04:00N 37°45' W 122°21'0 0.1
2017-Nov-16 03:30N 37°45' W 122°21'0 0.2
2017-Nov-16 03:00N 37°45' W 122°21'4 7.1
2017-Nov-16 02:31N 37°48' W 122°23'510.3
2017-Nov-16 02:00N 37°49' W 122°29'612.1
2017-Nov-16 01:30N 37°46' W 122°36'612.1
2017-Nov-16 01:00N 37°43' W 122°43'612.1
2017-Nov-16 00:30N 37°40' W 122°49'510.3
2017-Nov-16 00:00N 37°37' W 122°55'510.1
2017-Nov-15 23:30N 37°34' W 123°00'510.8
2017-Nov-15 23:00N 37°33' W 123°07'714.8
2017-Nov-15 22:31N 37°33' W 123°16'713.6
2017-Nov-15 22:00N 37°33' W 123°25'2 3.3
2017-Nov-15 21:31N 37°32' W 123°24'612.1
2017-Nov-15 21:00N 37°27' W 123°19'3 7.0
2017-Nov-15 20:30N 37°25' W 123°15'713.2
2017-Nov-15 20:00N 37°30' W 123°20'3 6.1
2017-Nov-15 19:31N 37°30' W 123°24'713.7
2017-Nov-15 19:00N 37°23' W 123°23'713.1
2017-Nov-15 18:30N 37°16' W 123°23'713.2
2017-Nov-15 18:01N 37°10' W 123°24'713.3
2017-Nov-15 17:31N 37°03' W 123°23'712.9
2017-Nov-15 17:00N 36°57' W 123°20'713.2
2017-Nov-15 16:31N 36°51' W 123°17'713.6
2017-Nov-15 16:00N 36°45' W 123°14'1913.2
2017-Nov-15 14:34N 36°26' W 123°12'1412.1
2017-Nov-15 13:23N 36°13' W 123°04'411.7
2017-Nov-15 13:00N 36°09' W 123°01'612.0
2017-Nov-15 12:30N 36°04' W 122°57'612.4
2017-Nov-15 12:00N 35°58' W 122°53'612.3
2017-Nov-15 11:31N 35°53' W 122°50'612.2
2017-Nov-15 11:00N 35°48' W 122°46'712.4
2017-Nov-15 10:26N 35°42' W 122°41'512.1
2017-Nov-15 10:00N 35°37' W 122°38'612.0
2017-Nov-15 09:30N 35°32' W 122°34'612.2
2017-Nov-15 09:00N 35°27' W 122°30'612.5
2017-Nov-15 08:30N 35°22' W 122°26'712.2
2017-Nov-15 07:56N 35°16' W 122°22'712.2
2017-Nov-15 07:23N 35°10' W 122°17'512.0
2017-Nov-15 07:00N 35°06' W 122°15'1211.8
2017-Nov-15 06:01N 34°55' W 122°10'012.5
2017-Nov-15 06:00N 34°55' W 122°09'611.6
2017-Nov-15 05:29N 34°49' W 122°07'611.9
2017-Nov-15 05:00N 34°44' W 122°04'612.2
2017-Nov-15 04:30N 34°38' W 122°02'612.1
2017-Nov-15 04:00N 34°33' W 121°59'611.9
2017-Nov-15 03:30N 34°27' W 121°57'612.1
2017-Nov-15 03:00N 34°21' W 121°54'612.3
2017-Nov-15 02:31N 34°16' W 121°51'612.7
2017-Nov-15 02:00N 34°10' W 121°48'612.9
2017-Nov-15 01:30N 34°05' W 121°43'612.8
2017-Nov-15 01:00N 33°59' W 121°39'612.4
2017-Nov-15 00:31N 33°54' W 121°35'712.9
2017-Nov-15 00:00N 33°49' W 121°31'612.5
2017-Nov-14 23:30N 33°43' W 121°27'612.3
2017-Nov-14 23:00N 33°38' W 121°23'612.5
2017-Nov-14 22:31N 33°33' W 121°19'612.4
2017-Nov-14 22:01N 33°28' W 121°15'611.3
2017-Nov-14 21:30N 33°23' W 121°11'611.3
2017-Nov-14 21:00N 33°19' W 121°06'611.7
2017-Nov-14 20:29N 33°15' W 121°01'611.8
2017-Nov-14 20:00N 33°12' W 120°55'5 9.5
2017-Nov-14 19:30N 33°16' W 120°57'714.5
2017-Nov-14 19:01N 33°22' W 121°03'714.0
2017-Nov-14 18:30N 33°28' W 121°07'714.3
2017-Nov-14 18:00N 33°35' W 121°07'713.7
2017-Nov-14 17:30N 33°42' W 121°06'713.2
2017-Nov-14 17:00N 33°48' W 121°04'713.1
2017-Nov-14 16:27N 33°48' W 120°55'613.1
2017-Nov-14 16:00N 33°48' W 120°48'  
Track history (hours):
 
Tides and Currents Weather Stations Pressure Air Temp Water Temp Dewpoint Dewpoint Depression Visibility Wind Speed Wind Dir Waves Ship Positions

Mississippi Voyager

Owner: Chevron USA Inc., Washington, DC. More information available from US FCC via Universal Licensing System and Coast Guard Vessel Documentation Center.

Last reported at 2017-Nov-24 15:31 UTC. Time now 2017-Nov-24 18:22 UTC.
Position N 33°46' W 118°16'.

Length 183 m; draft 9.6 m.

Type: Tanker. MMSI: 366962000.

Date/timePositionNaut miles runAvg speedWind from/ knotsBaromVisibWave heightAir tempDewpointWater temp
2017-Nov-24 15:31N 33°46' W 118°16'0 0.0
2017-Nov-24 15:25N 33°46' W 118°16'0 0.0
2017-Nov-24 14:55N 33°46' W 118°16'0 0.0
2017-Nov-24 14:25N 33°46' W 118°16'0 0.0
2017-Nov-24 13:55N 33°46' W 118°16'0 0.0
2017-Nov-24 13:28N 33°46' W 118°16'0 0.0
2017-Nov-24 12:58N 33°46' W 118°16'0 0.0
2017-Nov-24 12:28N 33°46' W 118°16'0 0.0
2017-Nov-24 11:58N 33°46' W 118°16'0 0.0
2017-Nov-24 11:28N 33°46' W 118°16'0 0.0
2017-Nov-24 10:55N 33°46' W 118°16'0 0.0
2017-Nov-24 10:28N 33°46' W 118°16'0 0.0
2017-Nov-24 09:55N 33°46' W 118°16'0 0.0
2017-Nov-24 09:25N 33°46' W 118°16'0 0.0
2017-Nov-24 08:55N 33°46' W 118°16'0 0.0
2017-Nov-24 08:25N 33°46' W 118°16'  
2017-Nov-19 16:18N 33°55' W 118°27'1 3.0
2017-Nov-19 15:56N 33°54' W 118°28'2 4.7
2017-Nov-19 15:29N 33°52' W 118°30'1 1.5
2017-Nov-19 14:59N 33°52' W 118°31'2 3.4
2017-Nov-19 14:30N 33°52' W 118°33'611.1
2017-Nov-19 13:59N 33°50' W 118°39'612.0
2017-Nov-19 13:29N 33°45' W 118°43'5 9.4
2017-Nov-19 13:00N 33°44' W 118°48'3 6.7
2017-Nov-19 12:30N 33°44' W 118°52'4 7.2
2017-Nov-19 12:00N 33°44' W 118°57'610.9
2017-Nov-19 11:29N 33°44' W 119°04'611.4
2017-Nov-19 10:59N 33°43' W 119°10'611.7
2017-Nov-19 10:30N 33°42' W 119°17'510.5
2017-Nov-19 10:00N 33°42' W 119°23'510.3
2017-Nov-19 09:30N 33°41' W 119°30'511.2
2017-Nov-19 09:01N 33°41' W 119°36'611.5
2017-Nov-19 08:30N 33°40' W 119°43'611.8
2017-Nov-19 07:59N 33°39' W 119°50'612.0
2017-Nov-19 07:31N 33°39' W 119°57'612.1
2017-Nov-19 06:59N 33°38' W 120°05'612.1
2017-Nov-19 06:30N 33°37' W 120°12'611.9
2017-Nov-19 06:00N 33°39' W 120°19'4 7.4
2017-Nov-19 05:31N 33°40' W 120°23'4 8.3
2017-Nov-19 05:01N 33°42' W 120°27'714.0
2017-Nov-19 04:30N 33°45' W 120°35'713.6
2017-Nov-19 03:57N 33°48' W 120°43'613.7
2017-Nov-19 03:30N 33°50' W 120°50'713.5
2017-Nov-19 03:00N 33°53' W 120°57'713.8
2017-Nov-19 02:30N 33°56' W 121°05'714.3
2017-Nov-19 02:00N 33°59' W 121°13'714.2
2017-Nov-19 01:30N 34°02' W 121°21'713.9
2017-Nov-19 01:00N 34°05' W 121°28'714.0
2017-Nov-19 00:30N 34°10' W 121°34'714.0
2017-Nov-19 00:00N 34°15' W 121°39'714.4
2017-Nov-18 23:31N 34°20' W 121°45'714.8
2017-Nov-18 23:00N 34°26' W 121°51'714.7
2017-Nov-18 22:30N 34°31' W 121°57'714.2
2017-Nov-18 22:00N 34°36' W 122°03'714.2
2017-Nov-18 21:30N 34°42' W 122°09'714.1
2017-Nov-18 21:00N 34°47' W 122°15'1015.0
2017-Nov-18 20:21N 34°56' W 122°11'513.4
2017-Nov-18 20:00N 35°01' W 122°10'714.6
2017-Nov-18 19:30N 35°07' W 122°15'814.3
2017-Nov-18 18:55N 35°14' W 122°20'614.5
2017-Nov-18 18:30N 35°19' W 122°24'714.4
2017-Nov-18 18:00N 35°26' W 122°29'714.2
2017-Nov-18 17:30N 35°32' W 122°33'813.9
2017-Nov-18 16:57N 35°38' W 122°38'614.2
2017-Nov-18 16:30N 35°44' W 122°42'714.1
2017-Nov-18 16:00N 35°50' W 122°47'6013.3
2017-Nov-18 11:28N 36°47' W 123°09'614.0
2017-Nov-18 11:00N 36°54' W 123°09'714.2
2017-Nov-18 10:30N 37°01' W 123°08'714.6
2017-Nov-18 10:00N 37°08' W 123°07'714.6
2017-Nov-18 09:30N 37°15' W 123°06'714.1
2017-Nov-18 09:00N 37°22' W 123°05'714.0
2017-Nov-18 08:30N 37°29' W 123°05'612.9
2017-Nov-18 08:00N 37°35' W 123°02'714.2
2017-Nov-18 07:30N 37°39' W 122°54'714.2
2017-Nov-18 07:01N 37°43' W 122°47'612.7
2017-Nov-18 06:30N 37°46' W 122°39'611.3
2017-Nov-18 06:00N 37°48' W 122°33'4 9.0
2017-Nov-18 05:30N 37°50' W 122°28'3 6.2
2017-Nov-18 05:00N 37°52' W 122°25'3 6.4
2017-Nov-18 04:30N 37°55' W 122°25'0 0.4
2017-Nov-18 03:58N 37°55' W 122°25'0 0.0
2017-Nov-18 03:28N 37°55' W 122°25'0 0.0
2017-Nov-18 02:58N 37°55' W 122°25'0 0.0
2017-Nov-18 02:25N 37°55' W 122°25'0 0.0
2017-Nov-18 01:58N 37°55' W 122°25'0 0.0
2017-Nov-18 01:28N 37°55' W 122°25'0 0.0
2017-Nov-18 00:58N 37°55' W 122°25'0 0.0
2017-Nov-18 00:28N 37°55' W 122°25'0 0.0
2017-Nov-17 23:58N 37°55' W 122°25'0 0.0
2017-Nov-17 23:28N 37°55' W 122°25'0 0.0
2017-Nov-17 22:58N 37°55' W 122°25'0 0.0
2017-Nov-17 22:25N 37°55' W 122°25'0 0.0
2017-Nov-17 21:58N 37°55' W 122°25'0 0.0
2017-Nov-17 21:28N 37°55' W 122°25'0 0.0
2017-Nov-17 20:58N 37°55' W 122°25'0 0.0
2017-Nov-17 20:25N 37°55' W 122°25'0 0.0
2017-Nov-17 19:58N 37°55' W 122°25'0 0.0
2017-Nov-17 19:19N 37°55' W 122°25'0 0.0
2017-Nov-17 18:58N 37°55' W 122°25'0 0.0
2017-Nov-17 18:22N 37°55' W 122°25'0 0.0
2017-Nov-17 17:58N 37°55' W 122°25'0 0.0
2017-Nov-17 17:28N 37°55' W 122°25'0 0.0
2017-Nov-17 16:58N 37°55' W 122°25'0 0.0
2017-Nov-17 16:28N 37°55' W 122°25'0 0.0
2017-Nov-17 15:58N 37°55' W 122°25'0 0.0
2017-Nov-17 15:19N 37°55' W 122°25'0 0.0
2017-Nov-17 14:58N 37°55' W 122°25'0 0.0
2017-Nov-17 14:28N 37°55' W 122°25'0 0.0
2017-Nov-17 13:58N 37°55' W 122°25'0 0.0
2017-Nov-17 13:28N 37°55' W 122°25'0 0.0
2017-Nov-17 12:58N 37°55' W 122°25'0 0.0
2017-Nov-17 12:22N 37°55' W 122°25'0 0.0
2017-Nov-17 11:58N 37°55' W 122°25'0 0.0
2017-Nov-17 11:28N 37°55' W 122°25'0 0.0
2017-Nov-17 10:58N 37°55' W 122°25'0 0.0
2017-Nov-17 10:28N 37°55' W 122°25'0 0.0
2017-Nov-17 09:58N 37°55' W 122°25'0 0.0
2017-Nov-17 09:28N 37°55' W 122°25'0 0.0
2017-Nov-17 08:58N 37°55' W 122°25'0 0.0
2017-Nov-17 08:28N 37°55' W 122°25'0 0.0
2017-Nov-17 07:58N 37°55' W 122°25'0 0.0
2017-Nov-17 07:28N 37°55' W 122°25'0 0.0
2017-Nov-17 06:58N 37°55' W 122°25'0 0.0
2017-Nov-17 06:28N 37°55' W 122°25'0 0.0
2017-Nov-17 05:58N 37°55' W 122°25'0 0.0
2017-Nov-17 05:28N 37°55' W 122°25'0 0.0
2017-Nov-17 04:43N 37°55' W 122°25'0 0.0
2017-Nov-17 04:28N 37°55' W 122°25'0 0.0
2017-Nov-17 03:55N 37°55' W 122°25'0 0.0
2017-Nov-17 03:25N 37°55' W 122°25'0 0.0
2017-Nov-17 03:01N 37°55' W 122°25'2 3.6
2017-Nov-17 02:30N 37°54' W 122°25'4 9.0
2017-Nov-17 02:00N 37°49' W 122°24'5 9.6
2017-Nov-17 01:30N 37°45' W 122°21'0 0.5
2017-Nov-17 01:00N 37°45' W 122°21'0 0.1
2017-Nov-17 00:29N 37°45' W 122°21'0 0.0
2017-Nov-16 23:59N 37°45' W 122°21'0 0.0
2017-Nov-16 23:29N 37°45' W 122°21'0 0.0
2017-Nov-16 22:59N 37°45' W 122°21'0 0.0
2017-Nov-16 22:29N 37°45' W 122°21'0 0.0
2017-Nov-16 21:59N 37°45' W 122°21'0 0.0
2017-Nov-16 21:29N 37°45' W 122°21'0 0.0
2017-Nov-16 20:59N 37°45' W 122°21'0 0.0
2017-Nov-16 20:29N 37°45' W 122°21'0 0.0
2017-Nov-16 19:59N 37°45' W 122°21'0 0.1
2017-Nov-16 19:29N 37°45' W 122°21'0 0.2
2017-Nov-16 18:59N 37°45' W 122°21'0 0.1
2017-Nov-16 18:29N 37°45' W 122°21'0 0.1
2017-Nov-16 17:59N 37°45' W 122°21'0 0.0
2017-Nov-16 17:29N 37°45' W 122°21'0 0.0
2017-Nov-16 16:59N 37°45' W 122°21'0 0.0
2017-Nov-16 16:29N 37°45' W 122°21'0 0.0
2017-Nov-16 15:59N 37°45' W 122°21'0 0.0
2017-Nov-16 15:29N 37°45' W 122°21'0 0.1
2017-Nov-16 14:59N 37°45' W 122°21'0 0.1
2017-Nov-16 14:29N 37°45' W 122°21'0 0.0
2017-Nov-16 13:59N 37°45' W 122°21'0 0.0
2017-Nov-16 13:30N 37°45' W 122°21'0 0.1
2017-Nov-16 13:00N 37°45' W 122°21'0 0.2
2017-Nov-16 12:30N 37°45' W 122°21'0 0.0
2017-Nov-16 12:00N 37°45' W 122°21'0 0.1
2017-Nov-16 11:30N 37°45' W 122°21'0 0.0
2017-Nov-16 11:00N 37°45' W 122°21'0 0.0
2017-Nov-16 10:30N 37°45' W 122°21'0 0.1
2017-Nov-16 10:00N 37°45' W 122°21'0 0.1
2017-Nov-16 09:30N 37°45' W 122°21'0 0.0
2017-Nov-16 09:00N 37°45' W 122°21'0 0.0
2017-Nov-16 08:30N 37°45' W 122°21'0 0.0
2017-Nov-16 08:00N 37°45' W 122°21'0 0.0
2017-Nov-16 07:30N 37°45' W 122°21'0 0.1
2017-Nov-16 07:00N 37°45' W 122°21'0 0.3
2017-Nov-16 06:30N 37°45' W 122°21'0 0.1
2017-Nov-16 06:00N 37°45' W 122°21'0 0.1
2017-Nov-16 05:30N 37°45' W 122°21'0 0.1
2017-Nov-16 05:00N 37°45' W 122°21'0 0.0
2017-Nov-16 04:30N 37°45' W 122°21'0 0.0
2017-Nov-16 04:00N 37°45' W 122°21'0 0.1
2017-Nov-16 03:30N 37°45' W 122°21'0 0.2
2017-Nov-16 03:00N 37°45' W 122°21'4 7.1
2017-Nov-16 02:31N 37°48' W 122°23'510.3
2017-Nov-16 02:00N 37°49' W 122°29'612.1
2017-Nov-16 01:30N 37°46' W 122°36'612.1
2017-Nov-16 01:00N 37°43' W 122°43'612.1
2017-Nov-16 00:30N 37°40' W 122°49'510.3
2017-Nov-16 00:00N 37°37' W 122°55'510.1
2017-Nov-15 23:30N 37°34' W 123°00'510.8
2017-Nov-15 23:00N 37°33' W 123°07'714.8
2017-Nov-15 22:31N 37°33' W 123°16'713.6
2017-Nov-15 22:00N 37°33' W 123°25'2 3.3
2017-Nov-15 21:31N 37°32' W 123°24'612.1
2017-Nov-15 21:00N 37°27' W 123°19'3 7.0
2017-Nov-15 20:30N 37°25' W 123°15'713.2
2017-Nov-15 20:00N 37°30' W 123°20'3 6.1
2017-Nov-15 19:31N 37°30' W 123°24'713.7
2017-Nov-15 19:00N 37°23' W 123°23'713.1
2017-Nov-15 18:30N 37°16' W 123°23'713.2
2017-Nov-15 18:01N 37°10' W 123°24'713.3
2017-Nov-15 17:31N 37°03' W 123°23'712.9
2017-Nov-15 17:00N 36°57' W 123°20'713.2
2017-Nov-15 16:31N 36°51' W 123°17'713.6
2017-Nov-15 16:00N 36°45' W 123°14'1913.2
2017-Nov-15 14:34N 36°26' W 123°12'1412.1
2017-Nov-15 13:23N 36°13' W 123°04'411.7
2017-Nov-15 13:00N 36°09' W 123°01'612.0
2017-Nov-15 12:30N 36°04' W 122°57'612.4
2017-Nov-15 12:00N 35°58' W 122°53'612.3
2017-Nov-15 11:31N 35°53' W 122°50'612.2
2017-Nov-15 11:00N 35°48' W 122°46'712.4
2017-Nov-15 10:26N 35°42' W 122°41'512.1
2017-Nov-15 10:00N 35°37' W 122°38'612.0
2017-Nov-15 09:30N 35°32' W 122°34'612.2
2017-Nov-15 09:00N 35°27' W 122°30'612.5
2017-Nov-15 08:30N 35°22' W 122°26'712.2
2017-Nov-15 07:56N 35°16' W 122°22'712.2
2017-Nov-15 07:23N 35°10' W 122°17'512.0
2017-Nov-15 07:00N 35°06' W 122°15'1211.8
2017-Nov-15 06:01N 34°55' W 122°10'012.5
2017-Nov-15 06:00N 34°55' W 122°09'611.6
2017-Nov-15 05:29N 34°49' W 122°07'611.9
2017-Nov-15 05:00N 34°44' W 122°04'612.2
2017-Nov-15 04:30N 34°38' W 122°02'612.1
2017-Nov-15 04:00N 34°33' W 121°59'611.9
2017-Nov-15 03:30N 34°27' W 121°57'612.1
2017-Nov-15 03:00N 34°21' W 121°54'612.3
2017-Nov-15 02:31N 34°16' W 121°51'612.7
2017-Nov-15 02:00N 34°10' W 121°48'612.9
2017-Nov-15 01:30N 34°05' W 121°43'612.8
2017-Nov-15 01:00N 33°59' W 121°39'612.4
2017-Nov-15 00:31N 33°54' W 121°35'712.9
2017-Nov-15 00:00N 33°49' W 121°31'612.5
2017-Nov-14 23:30N 33°43' W 121°27'612.3
2017-Nov-14 23:00N 33°38' W 121°23'612.5
2017-Nov-14 22:31N 33°33' W 121°19'612.4
2017-Nov-14 22:01N 33°28' W 121°15'611.3
2017-Nov-14 21:30N 33°23' W 121°11'611.3
2017-Nov-14 21:00N 33°19' W 121°06'611.7
2017-Nov-14 20:29N 33°15' W 121°01'611.8
2017-Nov-14 20:00N 33°12' W 120°55'5 9.5
2017-Nov-14 19:30N 33°16' W 120°57'714.5
2017-Nov-14 19:01N 33°22' W 121°03'714.0
2017-Nov-14 18:30N 33°28' W 121°07'714.3
2017-Nov-14 18:00N 33°35' W 121°07'713.7
2017-Nov-14 17:30N 33°42' W 121°06'713.2
2017-Nov-14 17:00N 33°48' W 121°04'713.1
2017-Nov-14 16:27N 33°48' W 120°55'613.1
2017-Nov-14 16:00N 33°48' W 120°48'  

Dump ship's entire track history